sensor_id;sensor_type;location;lat;lon;timestamp;temperature;humidity
64843;DHT22;51310;52.198;5.422;2022-07-06T00:01:49;13.00;99.90
64843;DHT22;51310;52.198;5.422;2022-07-06T00:04:16;13.10;99.90
64843;DHT22;51310;52.198;5.422;2022-07-06T00:06:43;13.00;99.90
64843;DHT22;51310;52.198;5.422;2022-07-06T00:09:09;12.90;99.90
64843;DHT22;51310;52.198;5.422;2022-07-06T00:11:35;13.00;99.90
64843;DHT22;51310;52.198;5.422;2022-07-06T00:14:01;12.90;99.90
64843;DHT22;51310;52.198;5.422;2022-07-06T00:16:27;12.80;99.90
64843;DHT22;51310;52.198;5.422;2022-07-06T00:18:53;12.70;99.90
64843;DHT22;51310;52.198;5.422;2022-07-06T00:21:19;12.70;99.90
64843;DHT22;51310;52.198;5.422;2022-07-06T00:23:45;12.60;99.90
64843;DHT22;51310;52.198;5.422;2022-07-06T00:26:11;12.70;99.90
64843;DHT22;51310;52.198;5.422;2022-07-06T00:28:37;12.60;99.90
64843;DHT22;51310;52.198;5.422;2022-07-06T00:31:03;12.60;99.90
64843;DHT22;51310;52.198;5.422;2022-07-06T00:33:31;12.50;99.90
64843;DHT22;51310;52.198;5.422;2022-07-06T00:35:58;12.60;99.90
64843;DHT22;51310;52.198;5.422;2022-07-06T00:38:23;12.50;99.90
64843;DHT22;51310;52.198;5.422;2022-07-06T00:40:49;12.50;99.90
64843;DHT22;51310;52.198;5.422;2022-07-06T00:43:15;12.50;99.90
64843;DHT22;51310;52.198;5.422;2022-07-06T00:45:41;12.40;99.90
64843;DHT22;51310;52.198;5.422;2022-07-06T00:48:09;12.40;99.90
64843;DHT22;51310;52.198;5.422;2022-07-06T00:50:35;12.40;99.90
64843;DHT22;51310;52.198;5.422;2022-07-06T00:53:03;11.60;99.90
64843;DHT22;51310;52.198;5.422;2022-07-06T00:55:35;12.40;99.90
64843;DHT22;51310;52.198;5.422;2022-07-06T00:58:07;13.10;99.90
64843;DHT22;51310;52.198;5.422;2022-07-06T01:00:35;12.40;99.90
64843;DHT22;51310;52.198;5.422;2022-07-06T01:03:02;12.40;99.90
64843;DHT22;51310;52.198;5.422;2022-07-06T01:05:29;12.50;99.90
64843;DHT22;51310;52.198;5.422;2022-07-06T01:07:55;12.40;99.90
64843;DHT22;51310;52.198;5.422;2022-07-06T01:10:22;12.50;99.90
64843;DHT22;51310;52.198;5.422;2022-07-06T01:12:48;12.50;99.90
64843;DHT22;51310;52.198;5.422;2022-07-06T01:15:20;12.60;99.90
64843;DHT22;51310;52.198;5.422;2022-07-06T01:17:50;12.50;99.90
64843;DHT22;51310;52.198;5.422;2022-07-06T01:20:19;12.50;99.90
64843;DHT22;51310;52.198;5.422;2022-07-06T01:22:49;12.60;99.90
64843;DHT22;51310;52.198;5.422;2022-07-06T01:25:18;12.60;99.90
64843;DHT22;51310;52.198;5.422;2022-07-06T01:27:45;12.60;99.90
64843;DHT22;51310;52.198;5.422;2022-07-06T01:30:15;12.60;99.90
64843;DHT22;51310;52.198;5.422;2022-07-06T01:32:43;12.70;99.90
64843;DHT22;51310;52.198;5.422;2022-07-06T01:35:12;12.70;99.90
64843;DHT22;51310;52.198;5.422;2022-07-06T01:37:40;12.80;99.90
64843;DHT22;51310;52.198;5.422;2022-07-06T01:40:09;12.60;99.90
64843;DHT22;51310;52.198;5.422;2022-07-06T01:42:36;12.50;99.90
64843;DHT22;51310;52.198;5.422;2022-07-06T01:45:04;12.60;99.90
64843;DHT22;51310;52.198;5.422;2022-07-06T01:47:31;12.50;99.90
64843;DHT22;51310;52.198;5.422;2022-07-06T01:49:59;12.40;99.90
64843;DHT22;51310;52.198;5.422;2022-07-06T01:52:27;12.30;99.90
64843;DHT22;51310;52.198;5.422;2022-07-06T01:54:54;12.30;99.90
64843;DHT22;51310;52.198;5.422;2022-07-06T01:57:21;12.30;99.90
64843;DHT22;51310;52.198;5.422;2022-07-06T01:59:47;12.40;99.90
64843;DHT22;51310;52.198;5.422;2022-07-06T02:02:12;12.40;99.90
64843;DHT22;51310;52.198;5.422;2022-07-06T02:04:39;12.30;99.90
64843;DHT22;51310;52.198;5.422;2022-07-06T02:07:04;12.40;99.90
64843;DHT22;51310;52.198;5.422;2022-07-06T02:09:30;12.30;99.90
64843;DHT22;51310;52.198;5.422;2022-07-06T02:11:56;12.40;99.90
64843;DHT22;51310;52.198;5.422;2022-07-06T02:14:22;12.40;99.90
64843;DHT22;51310;52.198;5.422;2022-07-06T02:16:48;12.40;99.90
64843;DHT22;51310;52.198;5.422;2022-07-06T02:19:14;12.30;99.90
64843;DHT22;51310;52.198;5.422;2022-07-06T02:21:39;12.40;99.90
64843;DHT22;51310;52.198;5.422;2022-07-06T02:24:05;12.60;99.90
64843;DHT22;51310;52.198;5.422;2022-07-06T02:26:31;12.60;99.90
64843;DHT22;51310;52.198;5.422;2022-07-06T02:28:57;12.60;99.90
64843;DHT22;51310;52.198;5.422;2022-07-06T02:31:23;12.70;99.90
64843;DHT22;51310;52.198;5.422;2022-07-06T02:33:49;12.80;99.90
64843;DHT22;51310;52.198;5.422;2022-07-06T02:36:14;12.80;99.90
64843;DHT22;51310;52.198;5.422;2022-07-06T02:38:40;12.80;99.90
64843;DHT22;51310;52.198;5.422;2022-07-06T02:41:06;12.90;99.90
64843;DHT22;51310;52.198;5.422;2022-07-06T02:43:32;12.80;99.90
64843;DHT22;51310;52.198;5.422;2022-07-06T02:45:58;12.70;99.90
64843;DHT22;51310;52.198;5.422;2022-07-06T02:48:24;12.70;99.90
64843;DHT22;51310;52.198;5.422;2022-07-06T02:50:50;13.90;99.90
64843;DHT22;51310;52.198;5.422;2022-07-06T02:53:18;12.60;99.90
64843;DHT22;51310;52.198;5.422;2022-07-06T02:55:44;12.50;99.90
64843;DHT22;51310;52.198;5.422;2022-07-06T02:58:10;12.50;99.90
64843;DHT22;51310;52.198;5.422;2022-07-06T03:00:36;12.50;99.90
64843;DHT22;51310;52.198;5.422;2022-07-06T03:03:02;12.60;99.90
64843;DHT22;51310;52.198;5.422;2022-07-06T03:05:28;12.50;99.90
64843;DHT22;51310;52.198;5.422;2022-07-06T03:07:54;12.50;99.90
64843;DHT22;51310;52.198;5.422;2022-07-06T03:10:20;12.40;99.90
64843;DHT22;51310;52.198;5.422;2022-07-06T03:12:45;14.30;99.90
64843;DHT22;51310;52.198;5.422;2022-07-06T03:15:11;12.40;99.90
64843;DHT22;51310;52.198;5.422;2022-07-06T03:17:38;12.40;99.90
64843;DHT22;51310;52.198;5.422;2022-07-06T03:20:07;12.50;99.90
64843;DHT22;51310;52.198;5.422;2022-07-06T03:22:33;12.50;99.90
64843;DHT22;51310;52.198;5.422;2022-07-06T03:24:59;12.50;99.90
64843;DHT22;51310;52.198;5.422;2022-07-06T03:27:25;12.60;99.90
64843;DHT22;51310;52.198;5.422;2022-07-06T03:29:50;12.80;99.90
64843;DHT22;51310;52.198;5.422;2022-07-06T03:32:16;12.70;99.90
64843;DHT22;51310;52.198;5.422;2022-07-06T03:34:42;12.70;99.90
64843;DHT22;51310;52.198;5.422;2022-07-06T03:37:08;12.80;99.90
64843;DHT22;51310;52.198;5.422;2022-07-06T03:39:34;12.80;99.90
64843;DHT22;51310;52.198;5.422;2022-07-06T03:42:00;12.80;99.90
64843;DHT22;51310;52.198;5.422;2022-07-06T03:44:26;12.70;99.90
64843;DHT22;51310;52.198;5.422;2022-07-06T03:46:51;12.70;99.90
64843;DHT22;51310;52.198;5.422;2022-07-06T03:49:21;12.70;99.90
64843;DHT22;51310;52.198;5.422;2022-07-06T03:51:47;12.80;99.90
64843;DHT22;51310;52.198;5.422;2022-07-06T03:54:13;12.90;99.90
64843;DHT22;51310;52.198;5.422;2022-07-06T03:56:39;13.00;99.90
64843;DHT22;51310;52.198;5.422;2022-07-06T03:59:05;12.90;99.90
64843;DHT22;51310;52.198;5.422;2022-07-06T04:01:31;12.90;99.90
64843;DHT22;51310;52.198;5.422;2022-07-06T04:03:57;12.90;99.90
64843;DHT22;51310;52.198;5.422;2022-07-06T04:06:23;12.90;99.90
64843;DHT22;51310;52.198;5.422;2022-07-06T04:08:49;12.90;99.90
64843;DHT22;51310;52.198;5.422;2022-07-06T04:11:15;12.90;99.90
64843;DHT22;51310;52.198;5.422;2022-07-06T04:13:41;13.00;99.90
64843;DHT22;51310;52.198;5.422;2022-07-06T04:16:07;13.20;99.90
64843;DHT22;51310;52.198;5.422;2022-07-06T04:18:33;13.20;99.90
64843;DHT22;51310;52.198;5.422;2022-07-06T04:20:59;13.30;99.90
64843;DHT22;51310;52.198;5.422;2022-07-06T04:23:25;13.20;99.90
64843;DHT22;51310;52.198;5.422;2022-07-06T04:25:51;13.30;99.90
64843;DHT22;51310;52.198;5.422;2022-07-06T04:28:17;13.20;99.90
64843;DHT22;51310;52.198;5.422;2022-07-06T04:30:43;13.40;99.90
64843;DHT22;51310;52.198;5.422;2022-07-06T04:33:09;13.40;99.90
64843;DHT22;51310;52.198;5.422;2022-07-06T04:35:35;13.50;99.90
64843;DHT22;51310;52.198;5.422;2022-07-06T04:38:01;13.60;99.90
64843;DHT22;51310;52.198;5.422;2022-07-06T04:40:27;13.70;99.90
64843;DHT22;51310;52.198;5.422;2022-07-06T04:42:52;13.70;99.90
64843;DHT22;51310;52.198;5.422;2022-07-06T04:45:18;13.80;99.90
64843;DHT22;51310;52.198;5.422;2022-07-06T04:47:44;13.80;99.90
64843;DHT22;51310;52.198;5.422;2022-07-06T04:50:10;13.80;99.90
64843;DHT22;51310;52.198;5.422;2022-07-06T04:52:38;13.90;99.90
64843;DHT22;51310;52.198;5.422;2022-07-06T04:55:04;13.90;99.90
64843;DHT22;51310;52.198;5.422;2022-07-06T04:57:31;13.90;99.90
64843;DHT22;51310;52.198;5.422;2022-07-06T04:59:58;14.00;99.90
64843;DHT22;51310;52.198;5.422;2022-07-06T05:02:24;14.00;99.90
64843;DHT22;51310;52.198;5.422;2022-07-06T05:04:50;14.10;99.90
64843;DHT22;51310;52.198;5.422;2022-07-06T05:07:16;14.30;99.90
64843;DHT22;51310;52.198;5.422;2022-07-06T05:09:43;14.30;99.80
64843;DHT22;51310;52.198;5.422;2022-07-06T05:12:09;14.20;99.90
64843;DHT22;51310;52.198;5.422;2022-07-06T05:14:35;14.10;99.90
64843;DHT22;51310;52.198;5.422;2022-07-06T05:17:02;14.20;99.90
64843;DHT22;51310;52.198;5.422;2022-07-06T05:19:28;14.40;99.90
64843;DHT22;51310;52.198;5.422;2022-07-06T05:21:54;14.60;99.10
64843;DHT22;51310;52.198;5.422;2022-07-06T05:24:20;14.70;98.50
64843;DHT22;51310;52.198;5.422;2022-07-06T05:26:46;14.80;97.90
64843;DHT22;51310;52.198;5.422;2022-07-06T05:29:12;14.90;97.60
64843;DHT22;51310;52.198;5.422;2022-07-06T05:31:38;15.10;95.70
64843;DHT22;51310;52.198;5.422;2022-07-06T05:34:04;15.10;96.20
64843;DHT22;51310;52.198;5.422;2022-07-06T05:36:30;15.50;95.10
64843;DHT22;51310;52.198;5.422;2022-07-06T05:38:56;15.70;93.90
64843;DHT22;51310;52.198;5.422;2022-07-06T05:41:22;15.80;93.70
64843;DHT22;51310;52.198;5.422;2022-07-06T05:43:48;16.20;91.30
64843;DHT22;51310;52.198;5.422;2022-07-06T05:46:13;15.90;92.00
64843;DHT22;51310;52.198;5.422;2022-07-06T05:48:39;15.90;92.90
64843;DHT22;51310;52.198;5.422;2022-07-06T05:51:24;16.00;92.50
64843;DHT22;51310;52.198;5.422;2022-07-06T05:53:50;18.10;92.00
64843;DHT22;51310;52.198;5.422;2022-07-06T05:56:17;17.40;92.40
64843;DHT22;51310;52.198;5.422;2022-07-06T05:58:42;16.30;91.10
64843;DHT22;51310;52.198;5.422;2022-07-06T06:01:08;16.60;90.80
64843;DHT22;51310;52.198;5.422;2022-07-06T06:03:35;16.90;87.80
64843;DHT22;51310;52.198;5.422;2022-07-06T06:06:01;17.10;84.30
64843;DHT22;51310;52.198;5.422;2022-07-06T06:08:27;18.00;83.20
64843;DHT22;51310;52.198;5.422;2022-07-06T06:10:53;17.30;82.20
64843;DHT22;51310;52.198;5.422;2022-07-06T06:13:19;17.50;79.80
64843;DHT22;51310;52.198;5.422;2022-07-06T06:15:45;17.50;78.60
64843;DHT22;51310;52.198;5.422;2022-07-06T06:18:11;17.50;79.00
64843;DHT22;51310;52.198;5.422;2022-07-06T06:20:37;17.30;78.50
64843;DHT22;51310;52.198;5.422;2022-07-06T06:23:03;17.30;80.50
64843;DHT22;51310;52.198;5.422;2022-07-06T06:25:35;17.40;77.20
64843;DHT22;51310;52.198;5.422;2022-07-06T06:28:08;18.30;79.60
64843;DHT22;51310;52.198;5.422;2022-07-06T06:30:36;17.10;77.60
64843;DHT22;51310;52.198;5.422;2022-07-06T06:33:18;16.90;79.40
64843;DHT22;51310;52.198;5.422;2022-07-06T06:35:52;17.00;82.20
64843;DHT22;51310;52.198;5.422;2022-07-06T06:38:21;17.10;79.90
64843;DHT22;51310;52.198;5.422;2022-07-06T06:40:51;18.60;82.80
64843;DHT22;51310;52.198;5.422;2022-07-06T06:43:16;17.30;72.00
64843;DHT22;51310;52.198;5.422;2022-07-06T06:45:42;17.70;60.80
64843;DHT22;51310;52.198;5.422;2022-07-06T06:48:09;17.60;59.60
64843;DHT22;51310;52.198;5.422;2022-07-06T06:50:35;18.30;61.60
64843;DHT22;51310;52.198;5.422;2022-07-06T06:53:02;20.00;60.70
64843;DHT22;51310;52.198;5.422;2022-07-06T06:55:28;17.50;58.30
64843;DHT22;51310;52.198;5.422;2022-07-06T06:57:54;17.60;57.00
64843;DHT22;51310;52.198;5.422;2022-07-06T07:00:20;18.20;58.00
64843;DHT22;51310;52.198;5.422;2022-07-06T07:02:45;17.40;59.30
64843;DHT22;51310;52.198;5.422;2022-07-06T07:05:12;17.30;58.20
64843;DHT22;51310;52.198;5.422;2022-07-06T07:07:38;17.10;57.80
64843;DHT22;51310;52.198;5.422;2022-07-06T07:10:05;17.10;58.50
64843;DHT22;51310;52.198;5.422;2022-07-06T07:14:58;17.10;58.60
64843;DHT22;51310;52.198;5.422;2022-07-06T07:17:25;17.00;56.90
64843;DHT22;51310;52.198;5.422;2022-07-06T07:19:51;17.00;56.40
64843;DHT22;51310;52.198;5.422;2022-07-06T07:22:17;17.10;55.40
64843;DHT22;51310;52.198;5.422;2022-07-06T07:24:42;17.10;56.10
64843;DHT22;51310;52.198;5.422;2022-07-06T07:27:08;17.20;57.40
64843;DHT22;51310;52.198;5.422;2022-07-06T07:29:34;17.40;56.80
64843;DHT22;51310;52.198;5.422;2022-07-06T07:32:00;17.50;54.60
64843;DHT22;51310;52.198;5.422;2022-07-06T07:34:26;17.40;56.90
64843;DHT22;51310;52.198;5.422;2022-07-06T07:36:52;17.50;55.90
64843;DHT22;51310;52.198;5.422;2022-07-06T07:39:17;17.50;56.90
64843;DHT22;51310;52.198;5.422;2022-07-06T07:41:43;17.50;56.60
64843;DHT22;51310;52.198;5.422;2022-07-06T07:44:09;20.50;59.80
64843;DHT22;51310;52.198;5.422;2022-07-06T07:46:35;17.60;57.30
64843;DHT22;51310;52.198;5.422;2022-07-06T07:49:01;17.40;57.30
64843;DHT22;51310;52.198;5.422;2022-07-06T07:51:27;17.30;57.50
64843;DHT22;51310;52.198;5.422;2022-07-06T07:53:53;17.20;56.40
64843;DHT22;51310;52.198;5.422;2022-07-06T07:56:19;17.30;56.40
64843;DHT22;51310;52.198;5.422;2022-07-06T07:58:44;19.00;57.70
64843;DHT22;51310;52.198;5.422;2022-07-06T08:01:10;17.30;56.00
64843;DHT22;51310;52.198;5.422;2022-07-06T08:03:36;17.40;58.30
64843;DHT22;51310;52.198;5.422;2022-07-06T08:06:02;17.50;53.90
64843;DHT22;51310;52.198;5.422;2022-07-06T08:08:28;17.60;54.40
64843;DHT22;51310;52.198;5.422;2022-07-06T08:10:54;17.70;55.80
64843;DHT22;51310;52.198;5.422;2022-07-06T08:13:20;18.10;54.90
64843;DHT22;51310;52.198;5.422;2022-07-06T08:15:45;17.90;52.50
64843;DHT22;51310;52.198;5.422;2022-07-06T08:18:11;18.00;53.60
64843;DHT22;51310;52.198;5.422;2022-07-06T08:20:37;17.90;55.80
64843;DHT22;51310;52.198;5.422;2022-07-06T08:23:04;20.00;54.90
64843;DHT22;51310;52.198;5.422;2022-07-06T08:25:30;18.30;49.30
64843;DHT22;51310;52.198;5.422;2022-07-06T08:27:56;18.20;47.90
64843;DHT22;51310;52.198;5.422;2022-07-06T08:30:22;18.10;50.90
64843;DHT22;51310;52.198;5.422;2022-07-06T08:32:48;18.20;47.50
64843;DHT22;51310;52.198;5.422;2022-07-06T08:35:14;19.30;48.70
64843;DHT22;51310;52.198;5.422;2022-07-06T08:37:40;18.10;51.00
64843;DHT22;51310;52.198;5.422;2022-07-06T08:40:06;18.10;50.30
64843;DHT22;51310;52.198;5.422;2022-07-06T08:42:34;18.50;48.70
64843;DHT22;51310;52.198;5.422;2022-07-06T08:45:06;18.90;47.70
64843;DHT22;51310;52.198;5.422;2022-07-06T08:47:35;18.60;48.40
64843;DHT22;51310;52.198;5.422;2022-07-06T08:50:04;18.40;46.90
64843;DHT22;51310;52.198;5.422;2022-07-06T08:52:31;18.20;46.70
64843;DHT22;51310;52.198;5.422;2022-07-06T08:54:57;18.20;47.30
64843;DHT22;51310;52.198;5.422;2022-07-06T08:57:25;19.70;50.90
64843;DHT22;51310;52.198;5.422;2022-07-06T08:59:51;20.60;48.80
64843;DHT22;51310;52.198;5.422;2022-07-06T09:02:17;18.70;45.30
64843;DHT22;51310;52.198;5.422;2022-07-06T09:04:45;18.90;44.00
64843;DHT22;51310;52.198;5.422;2022-07-06T09:07:13;19.30;38.10
64843;DHT22;51310;52.198;5.422;2022-07-06T09:09:39;19.30;38.70
64843;DHT22;51310;52.198;5.422;2022-07-06T09:12:11;19.10;39.30
64843;DHT22;51310;52.198;5.422;2022-07-06T09:14:40;19.00;39.60
64843;DHT22;51310;52.198;5.422;2022-07-06T09:17:06;21.20;42.00
64843;DHT22;51310;52.198;5.422;2022-07-06T09:19:34;19.20;40.80
64843;DHT22;51310;52.198;5.422;2022-07-06T09:22:01;19.40;40.60
64843;DHT22;51310;52.198;5.422;2022-07-06T09:24:28;19.50;41.40
64843;DHT22;51310;52.198;5.422;2022-07-06T09:26:56;19.50;41.50
64843;DHT22;51310;52.198;5.422;2022-07-06T09:29:31;19.30;43.00
64843;DHT22;51310;52.198;5.422;2022-07-06T09:32:02;19.90;42.70
64843;DHT22;51310;52.198;5.422;2022-07-06T09:34:40;19.10;41.30
64843;DHT22;51310;52.198;5.422;2022-07-06T09:37:08;19.10;43.00
64843;DHT22;51310;52.198;5.422;2022-07-06T09:39:34;20.70;43.80
64843;DHT22;51310;52.198;5.422;2022-07-06T09:42:01;19.00;42.80
64843;DHT22;51310;52.198;5.422;2022-07-06T09:44:36;19.10;43.10
64843;DHT22;51310;52.198;5.422;2022-07-06T09:47:10;18.90;44.40
64843;DHT22;51310;52.198;5.422;2022-07-06T09:49:38;18.90;44.10
64843;DHT22;51310;52.198;5.422;2022-07-06T09:52:07;18.90;42.90
64843;DHT22;51310;52.198;5.422;2022-07-06T09:54:37;19.10;44.40
64843;DHT22;51310;52.198;5.422;2022-07-06T09:57:05;19.20;45.40
64843;DHT22;51310;52.198;5.422;2022-07-06T09:59:33;19.40;42.20
64843;DHT22;51310;52.198;5.422;2022-07-06T10:02:03;19.50;39.90
64843;DHT22;51310;52.198;5.422;2022-07-06T10:04:31;19.60;39.60
64843;DHT22;51310;52.198;5.422;2022-07-06T10:06:58;19.60;38.60
64843;DHT22;51310;52.198;5.422;2022-07-06T10:09:26;19.50;40.00
64843;DHT22;51310;52.198;5.422;2022-07-06T10:11:59;21.30;40.20
64843;DHT22;51310;52.198;5.422;2022-07-06T10:14:31;20.20;40.10
64843;DHT22;51310;52.198;5.422;2022-07-06T10:16:59;19.90;38.50
64843;DHT22;51310;52.198;5.422;2022-07-06T10:19:30;20.00;38.40
64843;DHT22;51310;52.198;5.422;2022-07-06T10:22:02;20.60;36.90
64843;DHT22;51310;52.198;5.422;2022-07-06T10:24:29;20.10;36.20
64843;DHT22;51310;52.198;5.422;2022-07-06T10:26:56;21.90;36.20
64843;DHT22;51310;52.198;5.422;2022-07-06T10:29:24;20.30;35.30
64843;DHT22;51310;52.198;5.422;2022-07-06T10:31:50;20.10;37.00
64843;DHT22;51310;52.198;5.422;2022-07-06T10:34:19;20.10;36.00
64843;DHT22;51310;52.198;5.422;2022-07-06T10:36:50;19.70;38.40
64843;DHT22;51310;52.198;5.422;2022-07-06T10:39:32;19.70;37.10
64843;DHT22;51310;52.198;5.422;2022-07-06T10:42:50;20.10;36.40
64843;DHT22;51310;52.198;5.422;2022-07-06T10:53:26;21.00;34.30
64843;DHT22;51310;52.198;5.422;2022-07-06T10:55:56;20.50;36.50
64843;DHT22;51310;52.198;5.422;2022-07-06T10:58:39;19.90;36.60
64843;DHT22;51310;52.198;5.422;2022-07-06T11:01:17;20.00;37.60
64843;DHT22;51310;52.198;5.422;2022-07-06T11:04:08;20.50;36.80
64843;DHT22;51310;52.198;5.422;2022-07-06T11:06:37;20.60;35.20
64843;DHT22;51310;52.198;5.422;2022-07-06T11:19:20;21.30;32.70
64843;DHT22;51310;52.198;5.422;2022-07-06T11:21:54;23.00;32.80
64843;DHT22;51310;52.198;5.422;2022-07-06T11:24:37;21.00;33.50
64843;DHT22;51310;52.198;5.422;2022-07-06T11:27:05;21.70;32.60
64843;DHT22;51310;52.198;5.422;2022-07-06T11:29:35;20.90;31.60
64843;DHT22;51310;52.198;5.422;2022-07-06T11:32:05;21.90;32.40
64843;DHT22;51310;52.198;5.422;2022-07-06T11:34:37;20.80;30.70
64843;DHT22;51310;52.198;5.422;2022-07-06T11:37:13;20.60;32.50
64843;DHT22;51310;52.198;5.422;2022-07-06T11:39:44;20.60;33.00
64843;DHT22;51310;52.198;5.422;2022-07-06T11:42:13;20.80;32.40
64843;DHT22;51310;52.198;5.422;2022-07-06T11:44:42;20.90;29.30
64843;DHT22;51310;52.198;5.422;2022-07-06T11:47:09;20.90;29.50
64843;DHT22;51310;52.198;5.422;2022-07-06T11:49:38;20.80;30.40
64843;DHT22;51310;52.198;5.422;2022-07-06T11:52:10;20.90;29.60
64843;DHT22;51310;52.198;5.422;2022-07-06T11:54:39;21.50;31.20
64843;DHT22;51310;52.198;5.422;2022-07-06T11:57:10;21.40;31.00
64843;DHT22;51310;52.198;5.422;2022-07-06T11:59:39;20.90;30.60
64843;DHT22;51310;52.198;5.422;2022-07-06T12:02:09;22.90;30.40
64843;DHT22;51310;52.198;5.422;2022-07-06T12:04:42;20.90;31.10
64843;DHT22;51310;52.198;5.422;2022-07-06T12:07:12;20.80;30.20
64843;DHT22;51310;52.198;5.422;2022-07-06T12:09:45;22.20;30.30
64843;DHT22;51310;52.198;5.422;2022-07-06T12:12:13;21.20;31.30
64843;DHT22;51310;52.198;5.422;2022-07-06T12:14:41;21.60;29.60
64843;DHT22;51310;52.198;5.422;2022-07-06T12:17:09;22.10;27.40
64843;DHT22;51310;52.198;5.422;2022-07-06T12:19:39;22.00;26.50
64843;DHT22;51310;52.198;5.422;2022-07-06T12:22:07;21.80;25.80
64843;DHT22;51310;52.198;5.422;2022-07-06T12:24:36;22.40;28.70
64843;DHT22;51310;52.198;5.422;2022-07-06T12:29:41;22.60;25.00
64843;DHT22;51310;52.198;5.422;2022-07-06T12:32:14;22.40;27.60
64843;DHT22;51310;52.198;5.422;2022-07-06T12:34:42;23.10;25.10
64843;DHT22;51310;52.198;5.422;2022-07-06T12:37:10;24.30;24.10
64843;DHT22;51310;52.198;5.422;2022-07-06T12:42:17;23.20;23.20
64843;DHT22;51310;52.198;5.422;2022-07-06T12:44:47;22.90;25.00
64843;DHT22;51310;52.198;5.422;2022-07-06T12:47:20;23.70;24.40
64843;DHT22;51310;52.198;5.422;2022-07-06T12:50:03;22.50;22.70
64843;DHT22;51310;52.198;5.422;2022-07-06T12:52:34;22.20;24.20
64843;DHT22;51310;52.198;5.422;2022-07-06T12:55:02;22.10;25.40
64843;DHT22;51310;52.198;5.422;2022-07-06T12:57:45;22.10;24.30
64843;DHT22;51310;52.198;5.422;2022-07-06T13:00:13;21.90;24.20
64843;DHT22;51310;52.198;5.422;2022-07-06T13:02:50;21.90;24.50
64843;DHT22;51310;52.198;5.422;2022-07-06T13:05:25;22.20;25.40
64843;DHT22;51310;52.198;5.422;2022-07-06T13:07:56;22.00;25.50
64843;DHT22;51310;52.198;5.422;2022-07-06T13:10:24;22.40;25.10
64843;DHT22;51310;52.198;5.422;2022-07-06T13:12:50;23.20;24.10
64843;DHT22;51310;52.198;5.422;2022-07-06T13:15:16;23.40;22.30
64843;DHT22;51310;52.198;5.422;2022-07-06T13:17:43;23.50;23.30
64843;DHT22;51310;52.198;5.422;2022-07-06T13:20:11;23.50;21.50
64843;DHT22;51310;52.198;5.422;2022-07-06T13:22:38;23.00;23.10
64843;DHT22;51310;52.198;5.422;2022-07-06T13:25:05;22.40;23.20
64843;DHT22;51310;52.198;5.422;2022-07-06T13:27:31;22.40;23.50
64843;DHT22;51310;52.198;5.422;2022-07-06T13:29:57;22.30;23.60
64843;DHT22;51310;52.198;5.422;2022-07-06T13:32:23;22.00;23.60
64843;DHT22;51310;52.198;5.422;2022-07-06T13:34:49;21.80;25.60
64843;DHT22;51310;52.198;5.422;2022-07-06T13:37:15;22.60;25.80
64843;DHT22;51310;52.198;5.422;2022-07-06T13:39:41;22.80;25.90
64843;DHT22;51310;52.198;5.422;2022-07-06T13:42:07;23.00;23.50
64843;DHT22;51310;52.198;5.422;2022-07-06T13:44:34;23.00;21.90
64843;DHT22;51310;52.198;5.422;2022-07-06T13:47:00;23.00;22.70
64843;DHT22;51310;52.198;5.422;2022-07-06T13:49:26;24.20;22.10
64843;DHT22;51310;52.198;5.422;2022-07-06T13:51:52;22.80;22.60
64843;DHT22;51310;52.198;5.422;2022-07-06T13:54:19;22.40;22.60
64843;DHT22;51310;52.198;5.422;2022-07-06T13:56:45;22.50;23.00
64843;DHT22;51310;52.198;5.422;2022-07-06T13:59:11;23.90;23.90
64843;DHT22;51310;52.198;5.422;2022-07-06T14:01:37;22.70;22.20
64843;DHT22;51310;52.198;5.422;2022-07-06T14:04:03;22.40;22.90
64843;DHT22;51310;52.198;5.422;2022-07-06T14:06:29;22.00;23.90
64843;DHT22;51310;52.198;5.422;2022-07-06T14:08:55;22.40;23.30
64843;DHT22;51310;52.198;5.422;2022-07-06T14:11:20;22.00;25.30
64843;DHT22;51310;52.198;5.422;2022-07-06T14:13:46;22.30;24.20
64843;DHT22;51310;52.198;5.422;2022-07-06T14:16:12;23.70;26.00
64843;DHT22;51310;52.198;5.422;2022-07-06T14:18:38;22.70;25.60
64843;DHT22;51310;52.198;5.422;2022-07-06T14:21:04;21.80;25.30
64843;DHT22;51310;52.198;5.422;2022-07-06T14:23:30;21.60;25.90
64843;DHT22;51310;52.198;5.422;2022-07-06T14:25:56;21.50;26.00
64843;DHT22;51310;52.198;5.422;2022-07-06T14:28:23;21.70;26.30
64843;DHT22;51310;52.198;5.422;2022-07-06T14:30:49;25.70;28.00
64843;DHT22;51310;52.198;5.422;2022-07-06T14:33:16;21.40;26.40
64843;DHT22;51310;52.198;5.422;2022-07-06T14:35:44;21.30;26.40
64843;DHT22;51310;52.198;5.422;2022-07-06T14:38:19;21.40;26.40
64843;DHT22;51310;52.198;5.422;2022-07-06T14:40:46;21.50;26.40
64843;DHT22;51310;52.198;5.422;2022-07-06T14:43:16;21.50;26.30
64843;DHT22;51310;52.198;5.422;2022-07-06T14:45:46;21.30;25.70
64843;DHT22;51310;52.198;5.422;2022-07-06T14:48:12;21.10;26.40
64843;DHT22;51310;52.198;5.422;2022-07-06T14:50:39;21.10;27.50
64843;DHT22;51310;52.198;5.422;2022-07-06T14:53:05;21.10;27.40
64843;DHT22;51310;52.198;5.422;2022-07-06T14:55:31;21.10;27.90
64843;DHT22;51310;52.198;5.422;2022-07-06T14:57:57;21.20;27.10
64843;DHT22;51310;52.198;5.422;2022-07-06T15:00:23;21.20;27.30
64843;DHT22;51310;52.198;5.422;2022-07-06T15:02:48;21.10;27.80
64843;DHT22;51310;52.198;5.422;2022-07-06T15:05:14;21.20;28.70
64843;DHT22;51310;52.198;5.422;2022-07-06T15:07:41;21.20;27.80
64843;DHT22;51310;52.198;5.422;2022-07-06T15:10:07;21.10;28.90
64843;DHT22;51310;52.198;5.422;2022-07-06T15:12:34;21.00;28.70
64843;DHT22;51310;52.198;5.422;2022-07-06T15:15:00;21.00;29.80
64843;DHT22;51310;52.198;5.422;2022-07-06T15:17:25;21.10;29.20
64843;DHT22;51310;52.198;5.422;2022-07-06T15:19:52;21.10;30.40
64843;DHT22;51310;52.198;5.422;2022-07-06T15:22:18;21.70;30.00
64843;DHT22;51310;52.198;5.422;2022-07-06T15:24:44;21.10;30.00
64843;DHT22;51310;52.198;5.422;2022-07-06T15:27:10;21.10;31.50
64843;DHT22;51310;52.198;5.422;2022-07-06T15:29:36;21.20;31.00
64843;DHT22;51310;52.198;5.422;2022-07-06T15:32:02;21.30;30.80
64843;DHT22;51310;52.198;5.422;2022-07-06T15:34:28;21.30;32.70
64843;DHT22;51310;52.198;5.422;2022-07-06T15:36:54;21.30;32.20
64843;DHT22;51310;52.198;5.422;2022-07-06T15:39:21;21.10;35.90
64843;DHT22;51310;52.198;5.422;2022-07-06T15:41:47;21.50;37.90
64843;DHT22;51310;52.198;5.422;2022-07-06T15:44:12;20.50;40.10
64843;DHT22;51310;52.198;5.422;2022-07-06T15:46:38;20.30;42.80
64843;DHT22;51310;52.198;5.422;2022-07-06T15:49:04;20.20;42.50
64843;DHT22;51310;52.198;5.422;2022-07-06T15:51:30;21.70;44.40
64843;DHT22;51310;52.198;5.422;2022-07-06T15:53:57;20.20;43.70
64843;DHT22;51310;52.198;5.422;2022-07-06T15:56:23;21.30;45.30
64843;DHT22;51310;52.198;5.422;2022-07-06T15:58:49;20.10;45.60